| time (UTC) | temp C | wind direction | speed KPH | gust KPH | rain 1hr cm | rain 24hr cm | rain mn cm | humidity % | barometer mb |
| 20260906225710 | 25 | 85 | 3.2 | 4.8 | 0.00 | 0.00 | 0.00 | 19 | 1016.1 |
| 20260906225207 | 25 | 109 | 0.0 | 1.6 | 0.00 | 0.00 | 0.00 | 19 | 1016.2 |
| 20260906224702 | 26 | 268 | 6.4 | 6.4 | 0.00 | 0.00 | 0.00 | 19 | 1015.9 |
| 20260906224158 | 26 | 111 | 6.4 | 9.7 | 0.00 | 0.00 | 0.00 | 19 | 1016.2 |
| 20260906223654 | 25 | 183 | 1.6 | 1.6 | 0.00 | 0.00 | 0.00 | 19 | 1016.1 |
| 20260906223154 | 25 | 293 | 4.8 | 11.3 | 0.00 | 0.00 | 0.00 | 21 | 1015.9 |
| 20260906222653 | 25 | 244 | 19.3 | 25.7 | 0.00 | 0.00 | 0.00 | 19 | 1015.9 |
| 20260906222151 | 25 | 146 | 4.8 | 4.8 | 0.00 | 0.00 | 0.00 | 21 | 1015.9 |
| 20260906221649 | 25 | 64 | 1.6 | 1.6 | 0.00 | 0.00 | 0.00 | 21 | 1016.1 |
| 20260906221144 | 25 | 277 | 6.4 | 6.4 | 0.00 | 0.00 | 0.00 | 19 | 1016.1 |
| 20260906220640 | 25 | 319 | 3.2 | 4.8 | 0.00 | 0.00 | 0.00 | 19 | 1015.9 |
| 20260906220135 | 25 | 255 | 6.4 | 11.3 | 0.00 | 0.00 | 0.00 | 20 | 1015.7 |
| 20260906215634 | 25 | 284 | 6.4 | 6.4 | 0.00 | 0.00 | 0.00 | 19 | 1015.8 |
| 20260906215132 | 25 | 228 | 8.0 | 11.3 | 0.00 | 0.00 | 0.00 | 19 | 1016.1 |
| 20260906214631 | 25 | 91 | 3.2 | 4.8 | 0.00 | 0.00 | 0.00 | 19 | 1016.3 |
| 20260906214126 | 25 | 230 | 3.2 | 3.2 | 0.00 | 0.00 | 0.00 | 19 | 1016.2 |
| 20260906213625 | 26 | 214 | 4.8 | 4.8 | 0.00 | 0.00 | 0.00 | 19 | 1016.2 |
| 20260906213120 | 25 | 92 | 0.0 | 1.6 | 0.00 | 0.00 | 0.00 | 18 | 1016.5 |
| 20260906212618 | 25 | 248 | 11.3 | 12.9 | 0.00 | 0.00 | 0.00 | 18 | 1016.3 |
| 20260906212114 | 25 | 281 | 4.8 | 6.4 | 0.00 | 0.00 | 0.00 | 18 | 1016.5 |
| 20260906211613 | 25 | 173 | 6.4 | 9.7 | 0.00 | 0.00 | 0.00 | 18 | 1016.7 |
| 20260906211108 | 26 | 257 | 9.7 | 14.5 | 0.00 | 0.00 | 0.00 | 17 | 1016.4 |
| 20260906210603 | 26 | 224 | 12.9 | 17.7 | 0.00 | 0.00 | 0.00 | 17 | 1016.4 |
| 20260906210058 | 26 | 273 | 9.7 | 12.9 | 0.00 | 0.00 | 0.00 | 16 | 1016.9 |
| 20260906205554 | 26 | 294 | 8.0 | 11.3 | 0.00 | 0.00 | 0.00 | 17 | 1016.5 |
| 20260906205050 | 26 | 71 | 1.6 | 3.2 | 0.00 | 0.00 | 0.00 | 16 | 1016.8 |
| 20260906204549 | 26 | 240 | 1.6 | 3.2 | 0.00 | 0.00 | 0.00 | 17 | 1016.7 |
| 20260906204044 | 26 | 203 | 9.7 | 12.9 | 0.00 | 0.00 | 0.00 | 16 | 1016.7 |
| 20260906203543 | 26 | 242 | 12.9 | 16.1 | 0.00 | 0.00 | 0.00 | 17 | 1016.5 |
| 20260906203038 | 26 | 233 | 6.4 | 9.7 | 0.00 | 0.00 | 0.00 | 17 | 1016.4 |
| 20260906202535 | 26 | 237 | 16.1 | 20.9 | 0.00 | 0.00 | 0.00 | 17 | 1016.5 |
| 20260906202030 | 25 | 242 | 6.4 | 11.3 | 0.00 | 0.00 | 0.00 | 17 | 1016.5 |
| 20260906201530 | 25 | 293 | 14.5 | 22.5 | 0.00 | 0.00 | 0.00 | 15 | 1016.7 |
| 20260906201029 | 25 | 279 | 8.0 | 11.3 | 0.00 | 0.00 | 0.00 | 17 | 1016.3 |
| 20260906200526 | 26 | 179 | 20.9 | 33.8 | 0.00 | 0.00 | 0.00 | 16 | 1016.5 |
| 20260906200021 | 25 | 261 | 6.4 | 6.4 | 0.00 | 0.00 | 0.00 | 18 | 1016.9 |
| 20260906195516 | 25 | 318 | 6.4 | 9.7 | 0.00 | 0.00 | 0.00 | 17 | 1017.0 |
| 20260906195013 | 25 | 293 | 16.1 | 17.7 | 0.00 | 0.00 | 0.00 | 17 | 1017.1 |
| 20260906194508 | 25 | 298 | 11.3 | 16.1 | 0.00 | 0.00 | 0.00 | 16 | 1017.3 |
| 20260906194004 | 25 | 301 | 17.7 | 25.7 | 0.00 | 0.00 | 0.00 | 16 | 1017.3 |
| 20260906193504 | 25 | 299 | 12.9 | 17.7 | 0.00 | 0.00 | 0.00 | 17 | 1017.3 |
| 20260906192959 | 25 | 233 | 6.4 | 11.3 | 0.00 | 0.00 | 0.00 | 17 | 1017.3 |
| 20260906192454 | 25 | 102 | 1.6 | 3.2 | 0.00 | 0.00 | 0.00 | 19 | 1017.4 |
| 20260906191953 | 25 | 284 | 4.8 | 4.8 | 0.00 | 0.00 | 0.00 | 17 | 1017.4 |
| 20260906191448 | 24 | 256 | 4.8 | 4.8 | 0.00 | 0.00 | 0.00 | 17 | 1017.7 |
| 20260906190948 | 25 | 257 | 14.5 | 17.7 | 0.00 | 0.00 | 0.00 | 17 | 1017.7 |
| 20260906190446 | 25 | 264 | 16.1 | 20.9 | 0.00 | 0.00 | 0.00 | 17 | 1017.9 |
| 20260906185941 | 25 | 227 | 4.8 | 6.4 | 0.00 | 0.00 | 0.00 | 18 | 1017.7 |
| 20260906185441 | 25 | 179 | 1.6 | 1.6 | 0.00 | 0.00 | 0.00 | 21 | 1018.1 |
| 20260906184940 | 25 | 91 | 8.0 | 11.3 | 0.00 | 0.00 | 0.00 | 21 | 1018.2 |
| 20260906184436 | 25 | 62 | 4.8 | 6.4 | 0.00 | 0.00 | 0.00 | 21 | 1018.2 |
| 20260906183930 | 24 | 222 | 3.2 | 6.4 | 0.00 | 0.00 | 0.00 | 22 | 1018.2 |
| 20260906183427 | 23 | 203 | 3.2 | 4.8 | 0.00 | 0.00 | 0.00 | 23 | 1018.5 |
| 20260906182922 | 23 | 282 | 3.2 | 4.8 | 0.00 | 0.00 | 0.00 | 23 | 1018.6 |
| 20260906182417 | 23 | 224 | 4.8 | 6.4 | 0.00 | 0.00 | 0.00 | 23 | 1018.7 |
| 20260906181913 | 25 | 232 | 8.0 | 9.7 | 0.00 | 0.00 | 0.00 | 22 | 1018.8 |
| 20260906181409 | 25 | 225 | 1.6 | 1.6 | 0.00 | 0.00 | 0.00 | 28 | 1018.7 |
| 20260906180904 | 25 | 98 | 0.0 | 0.0 | 0.00 | 0.00 | 0.00 | 26 | 1019.0 |
| 20260906180359 | 23 | 90 | 0.0 | 0.0 | 0.00 | 0.00 | 0.00 | 29 | 1019.2 |
| 20260906175856 | 22 | 87 | 0.0 | 1.6 | 0.00 | 0.00 | 0.00 | 31 | 1019.2 |
| 20260906175352 | 21 | 106 | 0.0 | 0.0 | 0.00 | 0.00 | 0.00 | 34 | 1019.4 |
| 20260906174851 | 20 | 116 | 1.6 | 1.6 | 0.00 | 0.00 | 0.00 | 36 | 1019.6 |
| 20260906174350 | 20 | 182 | 1.6 | 1.6 | 0.00 | 0.00 | 0.00 | 37 | 1019.8 |
| 20260906173845 | 21 | 264 | 4.8 | 4.8 | 0.00 | 0.00 | 0.00 | 35 | 1020.0 |
| 20260906173341 | 21 | 149 | 1.6 | 1.6 | 0.00 | 0.00 | 0.00 | 34 | 1019.8 |
| 20260906172839 | 21 | 95 | 1.6 | 1.6 | 0.00 | 0.00 | 0.00 | 34 | 1019.8 |
| 20260906172336 | 20 | 127 | 0.0 | 1.6 | 0.00 | 0.00 | 0.00 | 34 | 1020.2 |
| 20260906171831 | 20 | 98 | 3.2 | 3.2 | 0.00 | 0.00 | 0.00 | 34 | 1020.0 |
| 20260906171326 | 18 | 104 | 0.0 | 0.0 | 0.00 | 0.00 | 0.00 | 37 | 1020.2 |
| 20260906170822 | 18 | 105 | 1.6 | 1.6 | 0.00 | 0.00 | 0.00 | 36 | 1020.4 |
| 20260906170318 | 18 | 110 | 0.0 | 1.6 | 0.00 | 0.00 | 0.00 | 37 | 1020.3 |
| 20260906165814 | 17 | 183 | 3.2 | 3.2 | 0.00 | 0.00 | 0.00 | 38 | 1020.3 |
| 20260906165313 | 17 | 255 | 1.6 | 1.6 | 0.00 | 0.00 | 0.00 | 38 | 1020.4 |
| 20260906164808 | 18 | 126 | 1.6 | 1.6 | 0.00 | 0.00 | 0.00 | 37 | 1020.5 |
| 20260906164308 | 16 | 106 | 0.0 | 0.0 | 0.00 | 0.00 | 0.00 | 40 | 1020.5 |
| 20260906163804 | 16 | 116 | 1.6 | 1.6 | 0.00 | 0.00 | 0.00 | 41 | 1020.8 |
| 20260906163300 | 16 | 104 | 0.0 | 1.6 | 0.00 | 0.00 | 0.00 | 45 | 1020.8 |
| 20260906162757 | 15 | 111 | 0.0 | 0.0 | 0.00 | 0.00 | 0.00 | 45 | 1020.6 |
| 20260906162256 | 15 | 167 | 1.6 | 1.6 | 0.00 | 0.00 | 0.00 | 45 | 1020.9 |
| 20260906161756 | 15 | 115 | 0.0 | 1.6 | 0.00 | 0.00 | 0.00 | 44 | 1020.9 |
| 20260906161255 | 14 | 177 | 1.6 | 1.6 | 0.00 | 0.00 | 0.00 | 44 | 1021.0 |
| 20260906160754 | 14 | 105 | 1.6 | 1.6 | 0.00 | 0.00 | 0.00 | 42 | 1021.0 |
| 20260906160249 | 14 | 112 | 1.6 | 1.6 | 0.00 | 0.00 | 0.00 | 44 | 1021.1 |
| 20260906155747 | 13 | 179 | 3.2 | 3.2 | 0.00 | 0.00 | 0.00 | 45 | 1021.1 |
| 20260906155242 | 13 | 88 | 0.0 | 0.0 | 0.00 | 0.00 | 0.00 | 46 | 1021.4 |
| 20260906154737 | 12 | 111 | 0.0 | 0.0 | 0.00 | 0.00 | 0.00 | 49 | 1021.2 |
| 20260906154232 | 12 | 102 | 0.0 | 0.0 | 0.00 | 0.00 | 0.00 | 51 | 1021.5 |
| 20260906153730 | 11 | 127 | 1.6 | 1.6 | 0.00 | 0.00 | 0.00 | 51 | 1021.4 |
| 20260906153225 | 11 | 124 | 0.0 | 0.0 | 0.00 | 0.00 | 0.00 | 54 | 1021.5 |
| 20260906152720 | 10 | 143 | 1.6 | 1.6 | 0.00 | 0.00 | 0.00 | 56 | 1021.4 |
| 20260906152214 | 10 | 187 | 3.2 | 4.8 | 0.00 | 0.00 | 0.00 | 56 | 1021.4 |
| 20260906151709 | 10 | 106 | 1.6 | 1.6 | 0.00 | 0.00 | 0.00 | 57 | 1021.5 |
| 20260906151205 | 10 | 36 | 1.6 | 1.6 | 0.00 | 0.00 | 0.00 | 57 | 1021.1 |
| 20260906150700 | 11 | 177 | 3.2 | 4.8 | 0.00 | 0.00 | 0.00 | 56 | 1021.2 |
| 20260906150155 | 10 | 116 | 0.0 | 0.0 | 0.00 | 0.00 | 0.00 | 53 | 1021.4 |
| 20260906145649 | 10 | 139 | 0.0 | 1.6 | 0.00 | 0.00 | 0.00 | 54 | 1021.2 |
| 20260906145148 | 10 | 103 | 0.0 | 0.0 | 0.00 | 0.00 | 0.00 | 54 | 1021.5 |
| 20260906144648 | 11 | 101 | 0.0 | 1.6 | 0.00 | 0.00 | 0.00 | 54 | 1021.5 |
| 20260906144143 | 11 | 93 | 0.0 | 0.0 | 0.00 | 0.00 | 0.00 | 54 | 1021.7 |
| 20260906143643 | 10 | 98 | 0.0 | 0.0 | 0.00 | 0.00 | 0.00 | 57 | 1021.6 |
| 20260906143140 | 8 | 104 | 0.0 | 0.0 | 0.00 | 0.00 | 0.00 | 62 | 1021.5 |
| 20260906142639 | 7 | 97 | 0.0 | 0.0 | 0.00 | 0.00 | 0.00 | 66 | 1021.2 |
| 20260906142135 | 6 | 78 | 0.0 | 0.0 | 0.00 | 0.00 | 0.00 | 72 | 1021.2 |
| 20260906141633 | 5 | 145 | 0.0 | 1.6 | 0.00 | 0.00 | 0.00 | 77 | 1021.6 |
| 20260906141129 | 5 | 79 | 0.0 | 0.0 | 0.00 | 0.00 | 0.00 | 79 | 1021.5 |
| 20260906140628 | 5 | 64 | 0.0 | 0.0 | 0.00 | 0.00 | 0.00 | 77 | 1021.7 |
| 20260906140123 | 5 | 95 | 0.0 | 0.0 | 0.00 | 0.00 | 0.00 | 77 | 1021.4 |
| 20260906135620 | 5 | 97 | 0.0 | 0.0 | 0.00 | 0.00 | 0.00 | 78 | 1021.6 |
| 20260906135116 | 5 | 92 | 0.0 | 0.0 | 0.00 | 0.00 | 0.00 | 77 | 1021.5 |
| 20260906134611 | 4 | 89 | 0.0 | 0.0 | 0.00 | 0.00 | 0.00 | 77 | 1021.4 |
| 20260906134106 | 5 | 90 | 0.0 | 0.0 | 0.00 | 0.00 | 0.00 | 76 | 1021.2 |
| 20260906133602 | 5 | 137 | 0.0 | 0.0 | 0.00 | 0.00 | 0.00 | 76 | 1021.4 |
| 20260906133057 | 5 | 93 | 0.0 | 0.0 | 0.00 | 0.00 | 0.00 | 73 | 1021.6 |
| 20260906132552 | 4 | 99 | 0.0 | 0.0 | 0.00 | 0.00 | 0.00 | 74 | 1021.5 |
| 20260906132047 | 5 | 113 | 0.0 | 0.0 | 0.00 | 0.00 | 0.00 | 75 | 1021.4 |
| 20260906131543 | 5 | 88 | 0.0 | 0.0 | 0.00 | 0.00 | 0.00 | 72 | 1021.1 |
| 20260906131038 | 5 | 90 | 0.0 | 0.0 | 0.00 | 0.00 | 0.00 | 72 | 1021.4 |
| 20260906130537 | 5 | 90 | 0.0 | 0.0 | 0.00 | 0.00 | 0.00 | 74 | 1021.4 |
| 20260906130033 | 5 | 94 | 0.0 | 0.0 | 0.00 | 0.00 | 0.00 | 74 | 1021.1 |
| 20260906125530 | 4 | 91 | 0.0 | 1.6 | 0.00 | 0.00 | 0.00 | 74 | 1021.2 |
| 20260906125030 | 5 | 93 | 0.0 | 0.0 | 0.00 | 0.00 | 0.00 | 74 | 1021.4 |
| 20260906124526 | 5 | 89 | 0.0 | 0.0 | 0.00 | 0.00 | 0.00 | 74 | 1021.4 |
| 20260906124021 | 5 | 91 | 0.0 | 0.0 | 0.00 | 0.00 | 0.00 | 77 | 1021.2 |
| 20260906123519 | 5 | 92 | 0.0 | 0.0 | 0.00 | 0.00 | 0.00 | 76 | 1021.4 |
| 20260906123016 | 5 | 93 | 0.0 | 0.0 | 0.00 | 0.00 | 0.00 | 75 | 1021.2 |
| 20260906122514 | 5 | 93 | 0.0 | 0.0 | 0.00 | 0.00 | 0.00 | 75 | 1021.4 |
| 20260906122011 | 5 | 94 | 0.0 | 0.0 | 0.00 | 0.00 | 0.00 | 75 | 1021.1 |
| 20260906121507 | 5 | 94 | 0.0 | 0.0 | 0.00 | 0.00 | 0.00 | 74 | 1021.1 |
| 20260906121003 | 5 | 93 | 0.0 | 0.0 | 0.00 | 0.00 | 0.00 | 72 | 1021.1 |
| 20260906120458 | 5 | 91 | 0.0 | 0.0 | 0.00 | 0.00 | 0.00 | 71 | 1021.0 |
| 20260906115955 | 5 | 97 | 0.0 | 0.0 | 0.00 | 0.00 | 0.00 | 73 | 1021.2 |
| 20260906115450 | 5 | 103 | 0.0 | 0.0 | 0.00 | 0.00 | 0.00 | 75 | 1021.0 |
| 20260906114949 | 5 | 120 | 0.0 | 1.6 | 0.00 | 0.00 | 0.00 | 74 | 1021.1 |
| 20260906114444 | 5 | 91 | 0.0 | 0.0 | 0.00 | 0.00 | 0.00 | 73 | 1021.0 |
| 20260906113940 | 5 | 90 | 0.0 | 0.0 | 0.00 | 0.00 | 0.00 | 73 | 1020.9 |
| 20260906113439 | 5 | 91 | 0.0 | 0.0 | 0.00 | 0.00 | 0.00 | 73 | 1020.9 |
| 20260906112934 | 6 | 96 | 0.0 | 0.0 | 0.00 | 0.00 | 0.00 | 75 | 1020.9 |
| 20260906112430 | 6 | 96 | 0.0 | 0.0 | 0.00 | 0.00 | 0.00 | 74 | 1020.8 |
| 20260906111925 | 6 | 98 | 0.0 | 0.0 | 0.00 | 0.00 | 0.00 | 73 | 1020.9 |
| 20260906111425 | 6 | 98 | 0.0 | 0.0 | 0.00 | 0.00 | 0.00 | 70 | 1020.8 |
| 20260906110920 | 6 | 95 | 0.0 | 0.0 | 0.00 | 0.00 | 0.00 | 69 | 1020.9 |
| 20260906110415 | 6 | 93 | 0.0 | 0.0 | 0.00 | 0.00 | 0.00 | 70 | 1021.0 |
| 20260906105914 | 6 | 94 | 0.0 | 0.0 | 0.00 | 0.00 | 0.00 | 70 | 1020.9 |
| 20260906105410 | 6 | 94 | 0.0 | 0.0 | 0.00 | 0.00 | 0.00 | 71 | 1020.8 |
| 20260906104906 | 6 | 94 | 0.0 | 0.0 | 0.00 | 0.00 | 0.00 | 71 | 1020.8 |
| 20260906104404 | 7 | 95 | 0.0 | 0.0 | 0.00 | 0.00 | 0.00 | 71 | 1020.5 |
| 20260906103903 | 7 | 96 | 0.0 | 0.0 | 0.00 | 0.00 | 0.00 | 71 | 1020.8 |
| 20260906103401 | 7 | 104 | 0.0 | 0.0 | 0.00 | 0.00 | 0.00 | 69 | 1020.6 |
| 20260906102858 | 7 | 109 | 0.0 | 0.0 | 0.00 | 0.00 | 0.00 | 67 | 1020.6 |
| 20260906102357 | 7 | 112 | 0.0 | 0.0 | 0.00 | 0.00 | 0.00 | 67 | 1020.4 |
| 20260906101851 | 8 | 101 | 0.0 | 0.0 | 0.00 | 0.00 | 0.00 | 66 | 1020.5 |
| 20260906101347 | 8 | 128 | 0.0 | 0.0 | 0.00 | 0.00 | 0.00 | 64 | 1020.3 |
| 20260906100842 | 8 | 248 | 1.6 | 3.2 | 0.00 | 0.00 | 0.00 | 63 | 1020.4 |
| 20260906100341 | 9 | 93 | 0.0 | 0.0 | 0.00 | 0.00 | 0.00 | 59 | 1020.5 |
| 20260906095837 | 9 | 93 | 0.0 | 0.0 | 0.00 | 0.00 | 0.00 | 58 | 1020.4 |
| 20260906095332 | 10 | 116 | 0.0 | 0.0 | 0.00 | 0.00 | 0.00 | 57 | 1020.3 |
| 20260906094831 | 10 | 77 | 0.0 | 0.0 | 0.00 | 0.00 | 0.00 | 56 | 1020.4 |
| 20260906094327 | 10 | 212 | 1.6 | 1.6 | 0.00 | 0.00 | 0.00 | 55 | 1020.4 |
| 20260906093823 | 10 | 277 | 4.8 | 4.8 | 0.00 | 0.00 | 0.00 | 55 | 1020.3 |
| 20260906093319 | 10 | 264 | 3.2 | 3.2 | 0.00 | 0.00 | 0.00 | 55 | 1020.4 |
| 20260906092814 | 9 | 122 | 0.0 | 1.6 | 0.00 | 0.00 | 0.00 | 57 | 1020.3 |
| 20260906092313 | 9 | 106 | 0.0 | 0.0 | 0.00 | 0.00 | 0.00 | 59 | 1019.9 |
| 20260906091809 | 9 | 105 | 0.0 | 0.0 | 0.00 | 0.00 | 0.00 | 58 | 1020.4 |
| 20260906091305 | 9 | 110 | 0.0 | 1.6 | 0.00 | 0.00 | 0.00 | 59 | 1020.3 |
| 20260906090801 | 9 | 106 | 0.0 | 0.0 | 0.00 | 0.00 | 0.00 | 59 | 1020.0 |
| 20260906090301 | 9 | 115 | 0.0 | 0.0 | 0.00 | 0.00 | 0.00 | 58 | 1020.3 |
| 20260906085800 | 10 | 90 | 0.0 | 0.0 | 0.00 | 0.00 | 0.00 | 58 | 1020.3 |
| 20260906085259 | 10 | 89 | 0.0 | 1.6 | 0.00 | 0.00 | 0.00 | 59 | 1020.3 |
| 20260906084754 | 10 | 90 | 0.0 | 0.0 | 0.00 | 0.00 | 0.00 | 59 | 1020.0 |
| 20260906084253 | 10 | 111 | 0.0 | 0.0 | 0.00 | 0.00 | 0.00 | 60 | 1020.3 |
| 20260906083749 | 10 | 93 | 0.0 | 0.0 | 0.00 | 0.00 | 0.00 | 59 | 1020.2 |
| 20260906083244 | 10 | 98 | 0.0 | 0.0 | 0.00 | 0.00 | 0.00 | 59 | 1020.4 |
| 20260906082739 | 10 | 98 | 0.0 | 0.0 | 0.00 | 0.00 | 0.00 | 59 | 1020.3 |
| 20260906082234 | 10 | 98 | 0.0 | 0.0 | 0.00 | 0.00 | 0.00 | 59 | 1020.3 |
| 20260906081730 | 10 | 103 | 0.0 | 0.0 | 0.00 | 0.00 | 0.00 | 57 | 1020.3 |
| 20260906081225 | 10 | 89 | 0.0 | 0.0 | 0.00 | 0.00 | 0.00 | 57 | 1020.4 |
| 20260906080722 | 11 | 86 | 0.0 | 0.0 | 0.00 | 0.00 | 0.00 | 54 | 1020.3 |
| 20260906080218 | 11 | 102 | 0.0 | 0.0 | 0.00 | 0.00 | 0.00 | 56 | 1020.3 |
| 20260906075717 | 11 | 319 | 1.6 | 1.6 | 0.00 | 0.00 | 0.00 | 53 | 1020.3 |
| 20260906075212 | 11 | 91 | 0.0 | 0.0 | 0.00 | 0.00 | 0.00 | 52 | 1020.3 |
| 20260906074707 | 11 | 91 | 0.0 | 0.0 | 0.00 | 0.00 | 0.00 | 52 | 1020.2 |
| 20260906074206 | 11 | 92 | 0.0 | 0.0 | 0.00 | 0.00 | 0.00 | 52 | 1020.4 |
| 20260906073701 | 11 | 90 | 0.0 | 0.0 | 0.00 | 0.00 | 0.00 | 53 | 1020.3 |
| 20260906073157 | 11 | 88 | 0.0 | 0.0 | 0.00 | 0.00 | 0.00 | 51 | 1020.3 |
| 20260906072652 | 11 | 89 | 0.0 | 0.0 | 0.00 | 0.00 | 0.00 | 52 | 1020.2 |
| 20260906072147 | 11 | 83 | 0.0 | 0.0 | 0.00 | 0.00 | 0.00 | 48 | 1020.3 |
| 20260906071644 | 11 | 83 | 0.0 | 0.0 | 0.00 | 0.00 | 0.00 | 46 | 1020.4 |
| 20260906071138 | 12 | 96 | 1.6 | 1.6 | 0.00 | 0.00 | 0.00 | 45 | 1020.0 |
| 20260906070635 | 12 | 95 | 0.0 | 0.0 | 0.00 | 0.00 | 0.00 | 44 | 1020.3 |
| 20260906070130 | 12 | 92 | 0.0 | 0.0 | 0.00 | 0.00 | 0.00 | 45 | 1020.3 |
| 20260906065630 | 12 | 93 | 0.0 | 0.0 | 0.00 | 0.00 | 0.00 | 44 | 1020.2 |
| 20260906065125 | 12 | 103 | 1.6 | 1.6 | 0.00 | 0.00 | 0.00 | 44 | 1019.9 |
| 20260906064620 | 11 | 92 | 0.0 | 1.6 | 0.00 | 0.00 | 0.00 | 44 | 1020.2 |
| 20260906064116 | 11 | 87 | 3.2 | 3.2 | 0.00 | 0.00 | 0.00 | 45 | 1020.3 |
| 20260906063616 | 12 | 94 | 0.0 | 0.0 | 0.00 | 0.00 | 0.00 | 45 | 1019.9 |
| 20260906063112 | 12 | 93 | 0.0 | 0.0 | 0.00 | 0.00 | 0.00 | 44 | 1020.2 |
| 20260906062607 | 12 | 86 | 0.0 | 0.0 | 0.00 | 0.00 | 0.00 | 44 | 1020.2 |
| 20260906062106 | 12 | 91 | 0.0 | 1.6 | 0.00 | 0.00 | 0.00 | 43 | 1020.2 |
| 20260906061602 | 12 | 92 | 0.0 | 1.6 | 0.00 | 0.00 | 0.00 | 42 | 1020.3 |
| 20260906061102 | 12 | 88 | 0.0 | 0.0 | 0.00 | 0.00 | 0.00 | 41 | 1020.3 |
| 20260906060558 | 13 | 88 | 0.0 | 0.0 | 0.00 | 0.00 | 0.00 | 41 | 1020.2 |
| 20260906060055 | 13 | 93 | 0.0 | 0.0 | 0.00 | 0.00 | 0.00 | 39 | 1020.3 |
| 20260906055551 | 13 | 95 | 0.0 | 0.0 | 0.00 | 0.00 | 0.00 | 38 | 1020.0 |
| 20260906055046 | 13 | 91 | 0.0 | 1.6 | 0.00 | 0.00 | 0.00 | 36 | 1020.3 |
| 20260906054541 | 13 | 89 | 0.0 | 0.0 | 0.00 | 0.00 | 0.00 | 38 | 1020.3 |
| 20260906054036 | 13 | 278 | 1.6 | 1.6 | 0.00 | 0.00 | 0.00 | 37 | 1019.9 |
| 20260906053532 | 14 | 113 | 0.0 | 0.0 | 0.00 | 0.00 | 0.00 | 38 | 1020.3 |
| 20260906053028 | 15 | 135 | 0.0 | 1.6 | 0.00 | 0.00 | 0.00 | 38 | 1020.3 |
| 20260906052523 | 15 | 74 | 1.6 | 3.2 | 0.00 | 0.00 | 0.00 | 34 | 1020.2 |
| 20260906052020 | 15 | 315 | 3.2 | 4.8 | 0.00 | 0.00 | 0.00 | 34 | 1020.0 |
| 20260906051516 | 15 | 96 | 1.6 | 3.2 | 0.00 | 0.00 | 0.00 | 33 | 1020.2 |
| 20260906051011 | 15 | 266 | 1.6 | 1.6 | 0.00 | 0.00 | 0.00 | 31 | 1020.2 |
| 20260906050506 | 16 | 87 | 0.0 | 1.6 | 0.00 | 0.00 | 0.00 | 30 | 1020.2 |
| 20260906050006 | 15 | 82 | 4.8 | 6.4 | 0.00 | 0.00 | 0.00 | 30 | 1020.2 |
| 20260906045504 | 16 | 88 | 9.7 | 12.9 | 0.00 | 0.00 | 0.00 | 31 | 1020.2 |
| 20260906045000 | 15 | 79 | 3.2 | 6.4 | 0.00 | 0.00 | 0.00 | 31 | 1020.2 |
| 20260906044455 | 16 | 89 | 6.4 | 6.4 | 0.00 | 0.00 | 0.00 | 31 | 1020.0 |
| 20260906043951 | 16 | 71 | 4.8 | 4.8 | 0.00 | 0.00 | 0.00 | 30 | 1020.2 |
| 20260906043446 | 16 | 59 | 4.8 | 4.8 | 0.00 | 0.00 | 0.00 | 29 | 1020.2 |
| 20260906042942 | 16 | 98 | 6.4 | 11.3 | 0.00 | 0.00 | 0.00 | 29 | 1020.0 |
| 20260906042441 | 16 | 76 | 6.4 | 6.4 | 0.00 | 0.00 | 0.00 | 30 | 1020.3 |
| 20260906041936 | 16 | 96 | 6.4 | 9.7 | 0.00 | 0.00 | 0.00 | 30 | 1020.0 |
| 20260906041433 | 16 | 54 | 8.0 | 9.7 | 0.00 | 0.00 | 0.00 | 30 | 1020.2 |
| 20260906040932 | 16 | 99 | 11.3 | 16.1 | 0.00 | 0.00 | 0.00 | 30 | 1020.3 |
| 20260906040427 | 16 | 77 | 4.8 | 6.4 | 0.00 | 0.00 | 0.00 | 30 | 1020.0 |
| 20260906035922 | 16 | 173 | 4.8 | 4.8 | 0.00 | 0.00 | 0.00 | 31 | 1020.0 |
| 20260906035418 | 16 | 84 | 3.2 | 4.8 | 0.00 | 0.00 | 0.00 | 31 | 1020.0 |
| 20260906034914 | 16 | 90 | 4.8 | 6.4 | 0.00 | 0.00 | 0.00 | 31 | 1020.3 |
| 20260906034413 | 16 | 91 | 1.6 | 1.6 | 0.00 | 0.00 | 0.00 | 31 | 1020.0 |
| 20260906033909 | 16 | 92 | 6.4 | 11.3 | 0.00 | 0.00 | 0.00 | 30 | 1019.9 |
| 20260906033408 | 16 | 58 | 4.8 | 6.4 | 0.00 | 0.00 | 0.00 | 30 | 1020.0 |
| 20260906032904 | 16 | 82 | 1.6 | 1.6 | 0.00 | 0.00 | 0.00 | 31 | 1020.0 |
| 20260906032400 | 17 | 56 | 0.0 | 1.6 | 0.00 | 0.00 | 0.00 | 30 | 1019.9 |
| 20260906031855 | 17 | 98 | 8.0 | 11.3 | 0.00 | 0.00 | 0.00 | 29 | 1019.7 |
| 20260906031350 | 17 | 95 | 0.0 | 1.6 | 0.00 | 0.00 | 0.00 | 28 | 1019.9 |
| 20260906030845 | 18 | 93 | 0.0 | 1.6 | 0.00 | 0.00 | 0.00 | 28 | 1019.9 |
| 20260906030341 | 19 | 102 | 0.0 | 0.0 | 0.00 | 0.00 | 0.00 | 26 | 1019.7 |
| 20260906025841 | 19 | 123 | 1.6 | 1.6 | 0.00 | 0.00 | 0.00 | 24 | 1019.7 |
| 20260906025334 | 18 | 270 | 3.2 | 6.4 | 0.00 | 0.00 | 0.00 | 24 | 1019.7 |
| 20260906024834 | 18 | 79 | 0.0 | 1.6 | 0.00 | 0.00 | 0.00 | 26 | 1019.7 |
| 20260906024333 | 18 | 26 | 1.6 | 1.6 | 0.00 | 0.00 | 0.00 | 26 | 1019.6 |
| 20260906023829 | 18 | 89 | 0.0 | 0.0 | 0.00 | 0.00 | 0.00 | 27 | 1019.4 |
| 20260906023325 | 18 | 83 | 0.0 | 1.6 | 0.00 | 0.00 | 0.00 | 28 | 1019.3 |
| 20260906022820 | 19 | 88 | 1.6 | 1.6 | 0.00 | 0.00 | 0.00 | 27 | 1019.0 |
| 20260906022315 | 19 | 82 | 1.6 | 3.2 | 0.00 | 0.00 | 0.00 | 27 | 1019.0 |
| 20260906021811 | 20 | 93 | 0.0 | 1.6 | 0.00 | 0.00 | 0.00 | 27 | 1019.0 |
| 20260906021310 | 20 | 95 | 1.6 | 1.6 | 0.00 | 0.00 | 0.00 | 25 | 1018.8 |
| 20260906020810 | 20 | 83 | 0.0 | 1.6 | 0.00 | 0.00 | 0.00 | 25 | 1018.8 |
| 20260906020310 | 21 | 67 | 1.6 | 3.2 | 0.00 | 0.00 | 0.00 | 24 | 1018.8 |
| 20260906015809 | 21 | 84 | 0.0 | 1.6 | 0.00 | 0.00 | 0.00 | 23 | 1018.6 |
| 20260906015309 | 21 | 91 | 0.0 | 0.0 | 0.00 | 0.00 | 0.00 | 23 | 1018.6 |
| 20260906014809 | 21 | 82 | 0.0 | 0.0 | 0.00 | 0.00 | 0.00 | 24 | 1018.6 |
| 20260906014304 | 22 | 93 | 1.6 | 3.2 | 0.00 | 0.00 | 0.00 | 24 | 1018.5 |
| 20260906013801 | 22 | 267 | 4.8 | 4.8 | 0.00 | 0.00 | 0.00 | 22 | 1018.7 |
| 20260906013301 | 23 | 79 | 0.0 | 0.0 | 0.00 | 0.00 | 0.00 | 23 | 1018.6 |
| 20260906012756 | 23 | 274 | 0.0 | 1.6 | 0.00 | 0.00 | 0.00 | 21 | 1018.6 |
| 20260906012251 | 23 | 276 | 3.2 | 3.2 | 0.00 | 0.00 | 0.00 | 20 | 1018.6 |
| 20260906011746 | 25 | 280 | 3.2 | 4.8 | 0.00 | 0.00 | 0.00 | 19 | 1018.6 |
| 20260906011246 | 25 | 275 | 3.2 | 3.2 | 0.00 | 0.00 | 0.00 | 19 | 1018.7 |
| 20260906010741 | 25 | 258 | 8.0 | 11.3 | 0.00 | 0.00 | 0.00 | 19 | 1018.7 |
| 20260906010238 | 25 | 274 | 6.4 | 6.4 | 0.00 | 0.00 | 0.00 | 18 | 1018.7 |
| 20260906005733 | 26 | 298 | 3.2 | 3.2 | 0.00 | 0.00 | 0.00 | 17 | 1018.3 |
| 20260906005232 | 26 | 84 | 3.2 | 3.2 | 0.00 | 0.00 | 0.00 | 16 | 1018.3 |
| 20260906004731 | 26 | 123 | 1.6 | 1.6 | 0.00 | 0.00 | 0.00 | 16 | 1018.5 |
| 20260906004226 | 26 | 243 | 3.2 | 4.8 | 0.00 | 0.00 | 0.00 | 16 | 1018.5 |
| 20260906003721 | 26 | 186 | 1.6 | 3.2 | 0.00 | 0.00 | 0.00 | 16 | 1018.5 |
| 20260906003217 | 27 | 263 | 9.7 | 12.9 | 0.00 | 0.00 | 0.00 | 15 | 1018.5 |
| 20260906002717 | 27 | 267 | 6.4 | 9.7 | 0.00 | 0.00 | 0.00 | 14 | 1018.2 |
| 20260906002212 | 27 | 253 | 3.2 | 9.7 | 0.00 | 0.00 | 0.00 | 14 | 1018.2 |
| 20260906001707 | 27 | 253 | 1.6 | 3.2 | 0.00 | 0.00 | 0.00 | 15 | 1018.2 |
| 20260906001207 | 27 | 259 | 3.2 | 4.8 | 0.00 | 0.00 | 0.00 | 16 | 1018.3 |
| 20260906000703 | 26 | 100 | 3.2 | 3.2 | 0.00 | 0.00 | 0.00 | 15 | 1018.3 |
| 20260906000158 | 26 | 253 | 4.8 | 6.4 | 0.00 | 0.00 | 0.00 | 15 | 1018.2 |
| 20260905235656 | 26 | 248 | 6.4 | 6.4 | 0.00 | 0.00 | 0.00 | 15 | 1018.7 |
| 20260905235152 | 26 | 233 | 3.2 | 4.8 | 0.00 | 0.00 | 0.00 | 16 | 1018.2 |
| 20260905234647 | 26 | 252 | 9.7 | 12.9 | 0.00 | 0.00 | 0.00 | 16 | 1018.5 |
| 20260905234143 | 27 | 228 | 4.8 | 6.4 | 0.00 | 0.00 | 0.00 | 15 | 1018.5 |
| 20260905233638 | 27 | 267 | 11.3 | 14.5 | 0.00 | 0.00 | 0.00 | 16 | 1018.1 |
| 20260905233137 | 27 | 248 | 6.4 | 6.4 | 0.00 | 0.00 | 0.00 | 14 | 1018.1 |
| 20260905232632 | 28 | 257 | 9.7 | 12.9 | 0.00 | 0.00 | 0.00 | 14 | 1018.3 |
| 20260905232129 | 28 | 248 | 4.8 | 6.4 | 0.00 | 0.00 | 0.00 | 13 | 1018.3 |
| 20260905231629 | 28 | 183 | 1.6 | 1.6 | 0.00 | 0.00 | 0.00 | 15 | 1018.2 |
| 20260905231125 | 28 | 114 | 3.2 | 3.2 | 0.00 | 0.00 | 0.00 | 13 | 1018.3 |
| 20260905230621 | 28 | 316 | 1.6 | 3.2 | 0.00 | 0.00 | 0.00 | 15 | 1018.2 |
| 20260905230119 | 27 | 205 | 3.2 | 3.2 | 0.00 | 0.00 | 0.00 | 16 | 1018.0 |